Time;durP1;ratioP1;P1;durP2;ratioP2;P2;SDS_P1;SDS_P2;PMS_P1;PMS_P2;Temp;Humidity;BMP_temperature;BMP_pressure;BME280_temperature;BME280_humidity;BME280_pressure;Samples;Min_cycle;Max_cycle;Signal;HPM_P1;HPM_P2
2023/04/16 00:02:44;;;;;;;6.40;1.60;;;10.90;99.90;;;;;;5052106;28;20036;-74
2023/04/16 00:05:48;;;;;;;7.68;1.75;;;11.20;99.90;;;;;;5052097;28;20052;-74
2023/04/16 00:08:52;;;;;;;7.93;1.92;;;11.40;99.90;;;;;;5051932;28;20044;-74
2023/04/16 00:11:56;;;;;;;7.68;2.75;;;11.20;99.90;;;;;;5052489;28;20048;-74
2023/04/16 00:15:00;;;;;;;8.98;3.30;;;11.10;99.90;;;;;;5051945;28;20508;-74
2023/04/16 00:18:04;;;;;;;15.00;3.30;;;11.00;99.90;;;;;;5051700;28;20413;-75
2023/04/16 00:21:08;;;;;;;7.18;3.10;;;11.20;99.90;;;;;;5051985;28;20060;-74
2023/04/16 00:24:12;;;;;;;10.25;3.60;;;;;;;;;;5051703;28;20040;-74
2023/04/16 00:27:18;;;;;;;10.95;4.20;;;11.00;99.90;;;;;;5051935;28;20060;-74
2023/04/16 00:30:22;;;;;;;12.43;4.45;;;;;;;;;;5051917;28;20052;-75
2023/04/16 00:33:28;;;;;;;14.05;3.80;;;11.10;99.90;;;;;;5051616;28;20048;-73
2023/04/16 00:36:32;;;;;;;15.15;3.38;;;11.80;99.90;;;;;;5051444;28;20052;-74
2023/04/16 00:39:36;;;;;;;17.05;4.40;;;11.60;99.90;;;;;;5050415;28;20048;-73
2023/04/16 00:42:40;;;;;;;8.85;3.60;;;10.90;99.90;;;;;;5051698;28;20056;-74
2023/04/16 00:45:44;;;;;;;10.20;3.53;;;11.30;99.90;;;;;;5051312;28;20048;-73
2023/04/16 00:48:49;;;;;;;10.15;3.42;;;10.90;99.90;;;;;;5050342;28;20420;-74
2023/04/16 00:51:53;;;;;;;10.30;3.38;;;11.30;99.90;;;;;;5051229;28;20056;-72
2023/04/16 00:54:58;;;;;;;13.32;3.22;;;;;;;;;;5049935;28;20056;-73
2023/04/16 00:58:02;;;;;;;13.15;3.90;;;10.80;99.90;;;;;;5051125;28;20055;-73
2023/04/16 01:01:06;;;;;;;9.23;3.47;;;10.80;99.90;;;;;;5051151;28;20496;-74
2023/04/16 01:04:10;;;;;;;8.90;3.20;;;10.00;99.90;;;;;;5050308;28;20503;-73
2023/04/16 01:07:14;;;;;;;11.63;3.90;;;13.40;99.90;;;;;;5050785;28;20044;-73
2023/04/16 01:10:18;;;;;;;11.05;3.30;;;11.00;99.90;;;;;;5050247;28;20048;-74
2023/04/16 01:13:22;;;;;;;10.57;3.28;;;11.10;99.90;;;;;;5051031;28;20043;-72
2023/04/16 01:16:26;;;;;;;12.23;3.75;;;10.90;99.90;;;;;;5050323;28;20044;-74
2023/04/16 01:19:30;;;;;;;11.20;3.72;;;11.00;99.90;;;;;;5049767;28;20055;-76
2023/04/16 01:22:34;;;;;;;11.50;3.42;;;;;;;;;;5050740;28;20044;-74
2023/04/16 01:25:39;;;;;;;8.85;2.90;;;11.40;99.90;;;;;;5050681;28;20056;-75
2023/04/16 01:28:42;;;;;;;8.30;2.80;;;10.40;99.90;;;;;;5050613;28;20040;-73
2023/04/16 01:31:48;;;;;;;11.13;2.90;;;;;;;;;;5049747;28;20049;-74
2023/04/16 01:35:02;;;;;;;9.63;2.88;;;11.00;99.90;;;;;;5049683;28;20052;-73
2023/04/16 01:38:07;;;;;;;7.13;2.30;;;11.10;99.90;;;;;;5050276;28;20071;-74
2023/04/16 01:41:11;;;;;;;10.13;2.60;;;12.00;99.90;;;;;;5050704;28;20052;-74
2023/04/16 01:44:16;;;;;;;6.70;1.90;;;;;;;;;;5050494;28;20195;-72
2023/04/16 01:47:20;;;;;;;9.95;2.13;;;11.40;99.90;;;;;;5049852;28;20607;-73
2023/04/16 01:50:24;;;;;;;6.05;1.80;;;11.30;99.90;;;;;;5050602;28;20044;-73
2023/04/16 01:53:28;;;;;;;12.27;2.33;;;10.80;99.90;;;;;;5050270;28;20044;-73
2023/04/16 01:56:32;;;;;;;11.32;2.50;;;;;;;;;;5050587;28;20044;-72
2023/04/16 01:59:37;;;;;;;7.70;2.40;;;;;;;;;;5049298;28;20052;-75
2023/04/16 02:02:41;;;;;;;11.65;2.65;;;;;;;;;;5049640;28;20481;-75
2023/04/16 02:05:46;;;;;;;6.43;2.00;;;11.90;99.90;;;;;;5050338;28;20052;-74
2023/04/16 02:08:50;;;;;;;12.27;1.85;;;;;;;;;;5054087;28;20051;-74
2023/04/16 02:11:55;;;;;;;6.90;1.50;;;;;;;;;;5054153;28;20052;-74
2023/04/16 02:14:59;;;;;;;5.25;1.08;;;12.80;99.90;;;;;;5054310;28;20041;-73
2023/04/16 02:18:04;;;;;;;4.47;0.90;;;11.60;99.90;;;;;;5053060;28;20060;-74
2023/04/16 02:21:09;;;;;;;8.25;1.30;;;11.10;99.90;;;;;;5041735;28;20036;-74
2023/04/16 02:24:13;;;;;;;8.90;1.25;;;;;;;;;;5053605;28;20056;-72
2023/04/16 02:27:18;;;;;;;7.93;2.35;;;11.00;99.90;;;;;;5052846;28;20374;-74
2023/04/16 02:30:24;;;;;;;6.50;2.05;;;11.20;99.90;;;;;;5052936;28;20040;-73
2023/04/16 02:33:30;;;;;;;5.70;1.20;;;10.90;99.90;;;;;;5053183;28;20143;-75
2023/04/16 02:36:38;;;;;;;4.93;1.33;;;11.10;99.90;;;;;;5053169;28;20048;-73
2023/04/16 02:39:42;;;;;;;3.97;1.30;;;10.70;99.90;;;;;;5052720;28;20048;-74
2023/04/16 02:42:46;;;;;;;6.28;1.27;;;;;;;;;;5052614;28;20040;-75
2023/04/16 02:45:50;;;;;;;7.53;1.38;;;11.00;99.90;;;;;;5052751;28;20048;-73
2023/04/16 02:48:54;;;;;;;3.65;0.90;;;10.70;99.90;;;;;;5052320;28;20047;-74
2023/04/16 02:51:58;;;;;;;5.38;1.08;;;11.00;99.90;;;;;;5053264;28;20480;-73
2023/04/16 02:55:02;;;;;;;5.03;1.55;;;11.30;99.90;;;;;;5052350;28;20044;-73
2023/04/16 02:58:06;;;;;;;6.40;1.48;;;9.30;99.90;;;;;;5052961;28;20036;-73
2023/04/16 03:01:09;;;;;;;7.90;1.35;;;13.30;99.90;;;;;;5052202;28;20040;-73
2023/04/16 03:04:14;;;;;;;7.72;1.92;;;10.70;99.90;;;;;;5040769;28;20052;-73
2023/04/16 03:07:18;;;;;;;6.72;1.30;;;10.40;99.90;;;;;;5053309;28;20048;-73
2023/04/16 03:10:23;;;;;;;6.10;1.30;;;9.60;99.90;;;;;;5053212;28;20512;-73
2023/04/16 03:13:26;;;;;;;4.72;1.20;;;10.90;99.90;;;;;;5052126;28;20040;-73
2023/04/16 03:16:31;;;;;;;5.53;1.48;;;11.00;99.90;;;;;;5052176;28;20059;-74
2023/04/16 03:19:35;;;;;;;4.03;1.13;;;10.90;99.90;;;;;;5052648;28;20055;-74
2023/04/16 03:22:39;;;;;;;7.38;1.73;;;11.00;99.90;;;;;;5053048;28;20044;-74
2023/04/16 03:25:45;;;;;;;5.70;1.23;;;11.10;99.90;;;;;;5052503;28;20127;-74
2023/04/16 03:28:50;;;;;;;3.88;1.15;;;10.80;99.90;;;;;;5051981;28;20040;-75
2023/04/16 03:31:54;;;;;;;4.13;1.27;;;10.70;99.90;;;;;;5051940;28;20056;-74
2023/04/16 03:35:00;;;;;;;4.25;1.00;;;10.10;99.90;;;;;;5040451;28;20051;-74
2023/04/16 03:38:05;;;;;;;4.22;1.20;;;;;;;;;;5051320;28;20064;-74
2023/04/16 03:41:08;;;;;;;6.47;1.10;;;10.80;99.90;;;;;;5052597;28;20040;-74
2023/04/16 03:44:12;;;;;;;5.95;1.20;;;10.70;99.90;;;;;;5051679;28;20096;-74
2023/04/16 03:47:21;;;;;;;6.10;1.40;;;10.80;99.90;;;;;;5051453;28;20044;-75
2023/04/16 03:50:26;;;;;;;7.18;1.40;;;10.60;99.90;;;;;;5051518;28;20047;-75
2023/04/16 03:53:30;;;;;;;5.47;1.50;;;10.60;99.90;;;;;;5051585;28;20389;-74
2023/04/16 03:56:34;;;;;;;6.93;1.40;;;10.00;99.90;;;;;;5052288;28;20060;-75
2023/04/16 03:59:38;;;;;;;4.20;1.17;;;10.50;99.90;;;;;;5051218;28;20048;-75
2023/04/16 04:02:42;;;;;;;8.13;1.75;;;10.40;99.90;;;;;;5051304;28;20041;-74
2023/04/16 04:05:53;;;;;;;5.03;2.00;;;10.30;99.90;;;;;;5051306;28;20520;-74
2023/04/16 04:09:03;;;;;;;5.60;2.22;;;10.30;99.90;;;;;;5051190;28;20051;-74
2023/04/16 04:12:06;;;;;;;8.95;2.80;;;9.70;99.90;;;;;;5051262;28;20048;-75
2023/04/16 04:15:11;;;;;;;6.85;2.15;;;10.40;99.90;;;;;;5051026;28;20398;-75
2023/04/16 04:18:15;;;;;;;5.32;1.73;;;10.40;99.90;;;;;;5051771;28;20047;-75
2023/04/16 04:21:20;;;;;;;7.35;2.05;;;10.90;99.90;;;;;;5050983;28;20052;-75
2023/04/16 04:24:25;;;;;;;8.35;1.80;;;10.40;99.90;;;;;;5051410;28;20044;-74
2023/04/16 04:27:30;;;;;;;5.63;1.85;;;;;;;;;;5050540;28;20500;-75
2023/04/16 04:30:37;;;;;;;7.53;2.20;;;10.50;99.90;;;;;;5050421;28;20033;-75
2023/04/16 04:33:42;;;;;;;9.55;2.10;;;10.50;99.90;;;;;;5050730;28;20052;-75
2023/04/16 04:36:46;;;;;;;5.60;1.95;;;;;;;;;;5051307;28;20044;-74
2023/04/16 04:39:51;;;;;;;7.43;1.75;;;10.50;99.90;;;;;;5050542;28;20049;-74
2023/04/16 04:42:56;;;;;;;6.47;2.00;;;10.70;99.90;;;;;;5050352;28;20044;-75
2023/04/16 04:46:01;;;;;;;4.90;1.30;;;;;;;;;;5050640;28;20044;-74
2023/04/16 04:49:06;;;;;;;6.43;1.48;;;10.60;99.90;;;;;;5050684;28;20040;-75
2023/04/16 04:52:10;;;;;;;7.38;1.92;;;10.90;99.90;;;;;;5051734;28;20052;-75
2023/04/16 04:55:14;;;;;;;8.77;1.88;;;10.70;99.90;;;;;;5050474;28;20068;-74
2023/04/16 04:58:19;;;;;;;7.13;1.80;;;10.50;99.90;;;;;;5050138;28;20396;-74
2023/04/16 05:01:23;;;;;;;11.23;1.90;;;10.70;99.90;;;;;;5050317;28;20051;-75
2023/04/16 05:04:27;;;;;;;3.90;1.73;;;10.40;99.90;;;;;;5050838;28;20040;-74
2023/04/16 05:07:31;;;;;;;8.18;2.28;;;;;;;;;;5050998;28;20512;-74
2023/04/16 05:10:35;;;;;;;7.20;2.25;;;11.00;99.90;;;;;;5050933;28;20037;-75
2023/04/16 05:13:39;;;;;;;4.07;2.00;;;10.50;99.90;;;;;;5050097;28;20397;-75
2023/04/16 05:16:43;;;;;;;5.88;1.90;;;10.40;99.90;;;;;;5050803;28;20051;-75
2023/04/16 05:19:47;;;;;;;5.55;1.98;;;10.40;99.90;;;;;;5050750;28;20068;-75
2023/04/16 05:22:51;;;;;;;9.32;2.17;;;10.30;99.90;;;;;;5051136;28;20044;-75
2023/04/16 05:25:55;;;;;;;7.65;1.75;;;11.00;99.90;;;;;;5051119;28;20543;-75
2023/04/16 05:28:59;;;;;;;6.25;1.58;;;10.30;99.90;;;;;;5050971;28;20147;-75
2023/04/16 05:32:03;;;;;;;5.40;1.90;;;10.40;99.90;;;;;;5050882;28;20051;-75
2023/04/16 05:35:08;;;;;;;8.77;3.35;;;10.50;99.90;;;;;;5050839;28;20396;-76
2023/04/16 05:38:12;;;;;;;8.88;4.10;;;10.30;99.90;;;;;;5050974;28;20052;-75
2023/04/16 05:41:16;;;;;;;10.05;3.50;;;10.30;99.90;;;;;;5052393;28;20123;-74
2023/04/16 05:44:20;;;;;;;7.75;3.10;;;10.30;99.90;;;;;;5054649;28;20048;-75
2023/04/16 05:47:24;;;;;;;4.93;2.72;;;10.20;99.90;;;;;;5054813;28;20504;-75
2023/04/16 05:50:28;;;;;;;5.68;2.13;;;10.40;99.90;;;;;;5054016;28;20547;-75
2023/04/16 05:53:32;;;;;;;4.63;1.80;;;9.70;99.90;;;;;;5054590;28;20064;-75
2023/04/16 05:56:36;;;;;;;7.13;2.58;;;10.50;99.90;;;;;;5054444;28;20393;-75
2023/04/16 05:59:40;;;;;;;4.07;1.50;;;9.70;99.90;;;;;;5054478;28;20051;-75
2023/04/16 06:02:44;;;;;;;8.65;2.00;;;10.70;99.90;;;;;;5054355;28;20041;-76
2023/04/16 06:05:48;;;;;;;6.68;2.25;;;10.50;99.90;;;;;;5054258;28;20056;-76
2023/04/16 06:08:52;;;;;;;9.20;2.45;;;12.50;99.90;;;;;;5054214;28;20072;-75
2023/04/16 06:11:56;;;;;;;6.88;2.50;;;9.70;99.90;;;;;;5054452;28;20055;-75
2023/04/16 06:15:01;;;;;;;9.30;4.07;;;9.60;99.90;;;;;;5054083;28;20042;-75
2023/04/16 06:18:04;;;;;;;12.27;4.47;;;10.30;99.90;;;;;;5054263;28;20041;-76
2023/04/16 06:21:09;;;;;;;8.90;3.75;;;10.50;99.90;;;;;;5054074;28;20381;-76
2023/04/16 06:24:12;;;;;;;9.57;4.40;;;10.80;99.90;;;;;;5054123;28;20392;-74
2023/04/16 06:27:16;;;;;;;6.05;3.40;;;10.10;99.90;;;;;;5053840;28;20048;-75
2023/04/16 06:30:20;;;;;;;8.52;3.10;;;10.20;99.90;;;;;;5053944;28;20495;-76
2023/04/16 06:33:24;;;;;;;6.32;2.85;;;10.30;99.90;;;;;;5053898;28;20044;-76
2023/04/16 06:36:28;;;;;;;6.95;2.67;;;10.50;99.90;;;;;;5053501;28;20048;-75
2023/04/16 06:39:32;;;;;;;7.00;2.42;;;10.40;99.90;;;;;;5053344;28;20056;-75
2023/04/16 06:42:36;;;;;;;5.18;2.33;;;10.20;99.90;;;;;;5053617;28;20385;-75
2023/04/16 06:45:40;;;;;;;7.57;3.20;;;10.20;99.90;;;;;;5053320;28;20050;-75
2023/04/16 06:48:44;;;;;;;6.50;2.88;;;10.40;99.90;;;;;;5053414;28;20040;-75
2023/04/16 06:51:48;;;;;;;7.25;2.75;;;8.60;99.90;;;;;;5053003;28;20401;-75
2023/04/16 06:54:51;;;;;;;9.45;3.28;;;9.10;99.90;;;;;;5053574;28;20041;-75
2023/04/16 06:57:55;;;;;;;6.25;2.60;;;10.50;99.90;;;;;;5053223;28;20029;-75
2023/04/16 07:01:01;;;;;;;5.95;2.15;;;10.60;99.90;;;;;;5053257;28;20060;-74
2023/04/16 07:04:05;;;;;;;3.17;1.65;;;;;;;;;;5053609;28;20103;-75
2023/04/16 07:07:09;;;;;;;5.93;2.03;;;11.20;99.90;;;;;;5053323;28;20037;-75
2023/04/16 07:10:13;;;;;;;17.45;2.28;;;11.30;99.90;;;;;;5053248;28;20036;-74
2023/04/16 07:13:17;;;;;;;3.80;1.75;;;11.20;99.90;;;;;;5053287;28;20048;-74
2023/04/16 07:16:21;;;;;;;4.78;1.70;;;11.30;99.90;;;;;;5053216;28;20044;-75
2023/04/16 07:19:29;;;;;;;4.53;2.33;;;11.60;99.90;;;;;;5053075;28;20060;-74
2023/04/16 07:22:33;;;;;;;4.88;2.10;;;;;;;;;;5052891;28;20048;-75
2023/04/16 07:25:37;;;;;;;3.67;1.88;;;11.40;99.90;;;;;;5051790;28;20057;-75
2023/04/16 07:28:41;;;;;;;7.68;1.75;;;11.50;99.90;;;;;;5052766;28;20040;-74
2023/04/16 07:31:45;;;;;;;5.38;1.20;;;11.40;99.90;;;;;;5052751;28;20043;-75
2023/04/16 07:34:50;;;;;;;4.90;1.52;;;11.50;99.90;;;;;;5052564;28;20040;-74
2023/04/16 07:37:53;;;;;;;3.15;1.60;;;11.50;99.90;;;;;;5052361;28;20044;-73
2023/04/16 07:40:58;;;;;;;2.25;1.27;;;;;;;;;;5052545;28;20072;-74
2023/04/16 07:44:02;;;;;;;2.63;1.20;;;11.70;99.90;;;;;;5052331;28;20132;-72
2023/04/16 07:47:07;;;;;;;2.25;1.20;;;;;;;;;;5052281;28;20068;-74
2023/04/16 07:50:11;;;;;;;1.38;0.88;;;11.60;99.90;;;;;;5052364;28;20645;-73
2023/04/16 07:53:15;;;;;;;3.47;1.10;;;12.00;99.90;;;;;;5052617;28;20048;-73
2023/04/16 07:56:19;;;;;;;2.53;1.10;;;12.00;99.90;;;;;;5052416;28;20048;-74
2023/04/16 07:59:23;;;;;;;4.68;1.63;;;11.80;99.90;;;;;;5052404;28;20058;-73
2023/04/16 08:02:27;;;;;;;2.10;1.50;;;;;;;;;;5052086;28;20040;-74
2023/04/16 08:05:32;;;;;;;3.38;1.92;;;;;;;;;;5051947;28;20044;-73
2023/04/16 08:08:36;;;;;;;3.75;1.50;;;12.00;99.90;;;;;;5051936;28;20029;-71
2023/04/16 08:11:40;;;;;;;4.53;1.80;;;;;;;;;;5051865;28;20047;-75
2023/04/16 08:14:45;;;;;;;4.22;1.95;;;12.20;99.90;;;;;;5052164;28;20496;-73
2023/04/16 08:17:49;;;;;;;4.05;1.67;;;12.40;99.90;;;;;;5051862;28;20071;-74
2023/04/16 08:20:54;;;;;;;3.95;1.38;;;12.50;99.90;;;;;;5051680;28;20060;-74
2023/04/16 08:23:57;;;;;;;2.15;1.50;;;13.30;99.90;;;;;;5051989;28;20036;-74
2023/04/16 08:27:03;;;;;;;3.63;2.13;;;12.00;99.90;;;;;;5051787;28;20055;-73
2023/04/16 08:30:07;;;;;;;3.65;2.33;;;9.30;99.90;;;;;;5051578;28;20150;-77
2023/04/16 08:33:13;;;;;;;3.97;2.38;;;12.00;99.90;;;;;;5051691;28;20049;-72
2023/04/16 08:36:16;;;;;;;5.60;2.90;;;12.40;99.90;;;;;;5051300;28;20507;-77
2023/04/16 08:39:20;;;;;;;4.07;2.45;;;11.90;99.90;;;;;;5050885;28;20052;-77
2023/04/16 08:42:47;;;;;;;2.65;1.92;;;12.30;99.90;;;;;;5051319;28;20051;-75
2023/04/16 08:45:55;;;;;;;3.83;1.73;;;12.50;99.90;;;;;;5050341;28;20048;-75
2023/04/16 08:49:01;;;;;;;4.40;1.67;;;12.50;99.90;;;;;;5051584;28;20524;-75
2023/04/16 08:52:07;;;;;;;3.72;1.98;;;13.00;99.90;;;;;;5051465;28;20397;-76
2023/04/16 08:55:15;;;;;;;4.70;1.88;;;12.40;99.90;;;;;;5050204;28;20095;-75
2023/04/16 08:58:21;;;;;;;3.35;1.88;;;12.40;99.90;;;;;;5050815;28;20044;-75
2023/04/16 09:01:26;;;;;;;4.15;2.20;;;12.70;99.90;;;;;;5050907;28;20512;-74
2023/04/16 09:04:31;;;;;;;4.13;2.00;;;12.80;99.90;;;;;;5051030;28;20055;-75
2023/04/16 09:07:36;;;;;;;5.15;2.75;;;12.80;99.90;;;;;;5050060;28;20048;-74
2023/04/16 09:10:40;;;;;;;4.53;3.00;;;12.90;99.90;;;;;;5050911;28;20032;-75
2023/04/16 09:13:45;;;;;;;3.25;1.80;;;13.10;99.90;;;;;;5050970;28;20036;-74
2023/04/16 09:16:52;;;;;;;3.38;1.95;;;13.00;99.90;;;;;;5050447;28;20054;-74
2023/04/16 09:19:56;;;;;;;3.25;1.58;;;13.00;99.90;;;;;;5050775;28;20051;-76
2023/04/16 09:23:00;;;;;;;1.73;1.10;;;13.10;99.90;;;;;;5050713;28;20032;-73
2023/04/16 09:26:05;;;;;;;4.20;1.33;;;12.30;99.90;;;;;;5050566;28;20460;-75
2023/04/16 09:29:09;;;;;;;3.20;1.45;;;13.10;99.90;;;;;;5050677;28;20385;-74
2023/04/16 09:32:14;;;;;;;3.58;1.17;;;;;;;;;;5050756;28;20044;-75
2023/04/16 09:35:19;;;;;;;4.40;1.50;;;13.20;99.90;;;;;;5050581;28;20041;-75
2023/04/16 09:38:25;;;;;;;3.40;1.60;;;;;;;;;;5050665;28;20036;-76
2023/04/16 09:41:32;;;;;;;4.75;2.00;;;13.30;99.90;;;;;;5050792;28;20053;-74
2023/04/16 09:44:37;;;;;;;3.25;1.48;;;;;;;;;;5050748;28;20504;-75
2023/04/16 09:47:45;;;;;;;1.23;0.90;;;13.40;99.90;;;;;;5050566;28;20040;-75
2023/04/16 09:50:51;;;;;;;1.88;0.90;;;13.30;99.60;;;;;;5050519;28;20064;-74
2023/04/16 09:53:56;;;;;;;4.13;1.08;;;14.20;99.90;;;;;;5050419;28;20044;-76
2023/04/16 09:57:00;;;;;;;3.67;1.80;;;;;;;;;;5050337;28;20052;-74
2023/04/16 10:00:07;;;;;;;3.05;1.60;;;13.30;99.90;;;;;;5050289;28;20492;-76
2023/04/16 10:03:12;;;;;;;6.45;1.83;;;;;;;;;;5050452;28;20040;-74
2023/04/16 10:06:20;;;;;;;3.70;1.50;;;13.20;99.90;;;;;;5050058;28;20041;-76
2023/04/16 10:09:25;;;;;;;7.60;2.08;;;;;;;;;;5050125;28;20052;-76
2023/04/16 10:12:31;;;;;;;4.32;1.80;;;11.50;99.90;;;;;;5050307;28;20033;-76
2023/04/16 10:15:35;;;;;;;3.20;1.60;;;13.00;99.90;;;;;;5050607;28;20060;-75
2023/04/16 10:18:41;;;;;;;5.80;3.03;;;13.10;99.90;;;;;;5050425;28;20052;-76
2023/04/16 10:21:46;;;;;;;5.05;3.35;;;13.00;99.90;;;;;;5049187;28;20055;-75
2023/04/16 10:24:50;;;;;;;5.10;2.38;;;11.40;99.90;;;;;;5049952;28;20040;-75
2023/04/16 10:27:56;;;;;;;6.57;3.47;;;13.10;99.90;;;;;;5052552;28;20044;-75
2023/04/16 10:31:06;;;;;;;5.90;3.42;;;13.20;99.90;;;;;;5053892;28;20095;-75
2023/04/16 10:34:10;;;;;;;3.53;2.00;;;13.20;99.90;;;;;;5054668;28;20052;-75
2023/04/16 10:37:16;;;;;;;3.88;1.92;;;12.40;99.90;;;;;;5054295;28;20040;-75
2023/04/16 10:40:22;;;;;;;5.78;2.28;;;13.10;99.90;;;;;;5055033;28;20055;-75
2023/04/16 10:43:27;;;;;;;4.55;2.35;;;13.20;99.90;;;;;;5053619;28;20052;-76
2023/04/16 10:46:42;;;;;;;4.70;2.38;;;13.40;99.90;;;;;;5053878;28;20040;-76
2023/04/16 10:49:47;;;;;;;4.45;1.67;;;13.00;99.90;;;;;;5054236;28;20044;-74
2023/04/16 10:53:18;;;;;;;3.20;2.03;;;14.20;99.90;;;;;;5055088;28;20119;-75
2023/04/16 10:56:24;;;;;;;3.20;1.85;;;13.00;99.90;;;;;;5054363;28;20044;-75
2023/04/16 10:59:33;;;;;;;6.00;2.75;;;13.10;99.90;;;;;;5053682;28;20043;-75
2023/04/16 11:02:39;;;;;;;6.90;2.40;;;13.00;99.90;;;;;;5055067;28;20067;-75
2023/04/16 11:05:47;;;;;;;5.00;2.97;;;13.10;99.90;;;;;;5054939;28;20044;-76
2023/04/16 11:08:52;;;;;;;8.75;4.25;;;13.10;99.90;;;;;;5053702;28;20059;-74
2023/04/16 11:11:56;;;;;;;8.80;3.92;;;13.10;99.90;;;;;;5053747;28;20055;-75
2023/04/16 11:15:08;;;;;;;8.77;4.30;;;13.10;99.90;;;;;;5054416;28;20044;-77
2023/04/16 11:18:17;;;;;;;;;;;13.10;99.90;;;;;;5053549;28;20051;-76
2023/04/16 11:21:25;;;;;;;5.45;3.47;;;13.90;99.90;;;;;;5052626;28;19932;-75
2023/04/16 11:24:33;;;;;;;9.75;4.78;;;12.90;99.90;;;;;;5052866;28;20040;-76
2023/04/16 11:27:37;;;;;;;6.90;3.90;;;;;;;;;;5053147;28;20063;-76
2023/04/16 11:30:41;;;;;;;8.05;3.42;;;;;;;;;;5053265;28;20371;-75
2023/04/16 11:33:45;;;;;;;5.50;3.80;;;;;;;;;;5053176;28;20044;-76
2023/04/16 11:36:51;;;;;;;9.50;5.30;;;13.70;99.90;;;;;;5053169;28;20386;-76
2023/04/16 11:39:55;;;;;;;17.85;7.85;;;12.90;99.90;;;;;;5052410;28;20178;-75
2023/04/16 11:43:12;;;;;;;13.82;7.50;;;13.00;99.90;;;;;;5052933;28;20040;-75
2023/04/16 11:46:16;;;;;;;9.43;6.30;;;;;;;;;;5052805;28;20071;-74
2023/04/16 11:49:27;;;;;;;5.07;3.40;;;13.00;99.90;;;;;;5053549;28;20021;-75
2023/04/16 11:52:32;;;;;;;6.18;3.47;;;12.50;99.90;;;;;;5053524;28;20048;-74
2023/04/16 11:55:44;;;;;;;9.77;3.17;;;12.90;99.90;;;;;;5053392;28;20064;-74
2023/04/16 11:59:08;;;;;;;5.82;3.03;;;14.40;99.90;;;;;;5053064;28;20048;-75
2023/04/16 12:02:14;;;;;;;7.85;4.80;;;;;;;;;;5053049;28;20043;-75
2023/04/16 12:05:32;;;;;;;10.73;7.07;;;12.60;99.90;;;;;;5052673;28;20362;-75
2023/04/16 12:08:37;;;;;;;10.98;7.25;;;;;;;;;;5052196;28;20071;-75
2023/04/16 12:11:41;;;;;;;11.98;6.60;;;12.70;99.90;;;;;;5052146;28;20044;-76
2023/04/16 12:14:53;;;;;;;11.00;4.75;;;12.60;99.90;;;;;;5052095;28;20048;-75
2023/04/16 12:18:07;;;;;;;7.60;4.20;;;12.60;99.90;;;;;;5052138;28;20043;-76
2023/04/16 12:21:11;;;;;;;5.15;2.97;;;;;;;;;;5051753;28;20516;-76
2023/04/16 12:24:22;;;;;;;8.32;4.60;;;12.50;99.90;;;;;;5051713;28;20029;-77
2023/04/16 12:27:41;;;;;;;10.00;5.25;;;12.20;99.90;;;;;;5051815;28;20397;-77
2023/04/16 12:30:51;;;;;;;9.95;5.93;;;13.30;99.90;;;;;;5052124;28;20496;-77
2023/04/16 12:34:02;;;;;;;7.82;4.03;;;11.90;99.90;;;;;;5051656;28;20059;-75
2023/04/16 12:37:09;;;;;;;9.88;6.00;;;12.00;99.90;;;;;;5051935;28;20044;-78
2023/04/16 12:40:13;;;;;;;11.80;6.18;;;12.00;99.90;;;;;;5051617;28;20055;-77
2023/04/16 12:43:18;;;;;;;11.55;6.70;;;11.90;99.90;;;;;;5051689;28;20040;-78
2023/04/16 12:46:22;;;;;;;9.00;5.32;;;12.10;99.90;;;;;;5051744;28;20052;-78
2023/04/16 12:49:26;;;;;;;7.95;4.70;;;12.10;99.90;;;;;;5051778;28;20503;-77
2023/04/16 12:52:30;;;;;;;8.18;5.43;;;12.00;99.90;;;;;;5051676;28;20071;-78
2023/04/16 12:55:34;;;;;;;8.85;5.82;;;12.00;99.90;;;;;;5052144;28;20039;-79
2023/04/16 12:58:38;;;;;;;9.85;6.50;;;12.30;99.90;;;;;;5052189;28;20056;-80
2023/04/16 13:01:43;;;;;;;10.73;7.10;;;11.90;99.90;;;;;;5051597;28;20056;-79
2023/04/16 13:04:48;;;;;;;11.85;7.47;;;12.10;99.90;;;;;;5052088;28;20434;-80
2023/04/16 13:07:54;;;;;;;12.15;8.07;;;11.90;99.90;;;;;;5051151;28;20520;-79
2023/04/16 13:10:58;;;;;;;32.42;23.35;;;;;;;;;;5052046;28;20444;-79
2023/04/16 13:14:02;;;;;;;14.75;7.30;;;;;;;;;;5050619;28;20055;-79
2023/04/16 13:17:06;;;;;;;11.60;6.40;;;11.80;99.90;;;;;;5048440;28;20043;-80
2023/04/16 13:20:10;;;;;;;14.43;9.00;;;12.20;99.90;;;;;;5049000;28;20516;-80
2023/04/16 13:23:15;;;;;;;11.32;7.80;;;;;;;;;;5051479;28;20044;-81
2023/04/16 13:26:20;;;;;;;3.72;2.42;;;;;;;;;;5050582;28;20060;-81
2023/04/16 13:29:25;;;;;;;4.82;2.90;;;11.80;99.90;;;;;;5050686;28;20045;-79
2023/04/16 13:32:30;;;;;;;9.52;3.83;;;12.00;99.90;;;;;;5050847;28;20056;-80
2023/04/16 13:35:35;;;;;;;18.27;12.43;;;;;;;;;;5051427;28;20044;-79
2023/04/16 13:38:41;;;;;;;9.20;6.25;;;12.10;99.90;;;;;;5051763;28;20048;-80
2023/04/16 13:41:45;;;;;;;9.02;6.70;;;;;;;;;;5050413;28;20056;-80
2023/04/16 13:44:51;;;;;;;15.70;10.30;;;11.70;99.90;;;;;;5051138;28;20037;-80
2023/04/16 13:47:56;;;;;;;8.70;6.35;;;11.60;99.90;;;;;;5050840;28;20063;-80
2023/04/16 13:51:01;;;;;;;11.63;6.50;;;12.10;99.90;;;;;;5051273;28;20048;-81
2023/04/16 13:54:06;;;;;;;11.27;7.95;;;;;;;;;;5050840;28;20064;-80
2023/04/16 13:57:11;;;;;;;12.77;6.60;;;11.70;99.90;;;;;;5038492;28;20036;-79
2023/04/16 14:00:17;;;;;;;8.48;5.13;;;11.40;99.90;;;;;;5050805;28;20503;-79
2023/04/16 14:03:21;;;;;;;8.15;5.35;;;11.70;99.90;;;;;;5054544;28;20044;-79
2023/04/16 14:06:25;;;;;;;7.03;4.05;;;11.60;99.90;;;;;;5054994;28;20036;-78
2023/04/16 14:09:30;;;;;;;10.75;5.47;;;11.50;99.90;;;;;;5054956;28;20056;-78
2023/04/16 14:12:35;;;;;;;8.07;5.43;;;11.60;99.90;;;;;;5054728;28;20044;-79
2023/04/16 14:15:39;;;;;;;6.53;4.45;;;11.60;99.90;;;;;;5054637;28;20039;-79
2023/04/16 14:18:44;;;;;;;6.13;4.15;;;11.50;99.90;;;;;;5054145;28;20063;-79
2023/04/16 14:21:49;;;;;;;7.32;4.50;;;11.70;99.90;;;;;;5054830;28;20056;-81
2023/04/16 14:24:53;;;;;;;8.10;5.32;;;11.40;99.90;;;;;;5054962;28;20405;-79
2023/04/16 14:27:58;;;;;;;4.80;2.67;;;13.30;99.90;;;;;;5054969;28;20052;-78
2023/04/16 14:31:02;;;;;;;5.95;3.58;;;11.40;99.90;;;;;;5054554;28;20508;-80
2023/04/16 14:34:08;;;;;;;9.77;6.15;;;;;;;;;;5054906;28;20048;-80
2023/04/16 14:37:14;;;;;;;7.80;5.68;;;11.60;99.90;;;;;;5054694;28;20041;-79
2023/04/16 14:40:19;;;;;;;11.65;7.00;;;11.60;99.90;;;;;;5054337;28;20060;-79
2023/04/16 14:43:23;;;;;;;10.30;6.00;;;11.80;99.90;;;;;;5054383;28;20142;-78
2023/04/16 14:46:27;;;;;;;12.18;6.80;;;11.50;99.90;;;;;;5053917;28;20048;-79
2023/04/16 14:49:32;;;;;;;11.00;7.55;;;11.70;99.90;;;;;;5054096;28;20048;-79
2023/04/16 14:52:36;;;;;;;10.07;6.88;;;11.80;99.90;;;;;;5054634;28;20052;-78
2023/04/16 14:55:40;;;;;;;10.93;8.10;;;11.90;99.90;;;;;;5054056;28;20056;-79
2023/04/16 14:58:44;;;;;;;12.05;8.02;;;;;;;;;;5053899;28;20044;-78
2023/04/16 15:01:49;;;;;;;13.27;8.07;;;11.80;99.90;;;;;;5054099;28;20047;-78
2023/04/16 15:04:54;;;;;;;12.18;8.85;;;11.80;99.90;;;;;;5053588;28;20040;-78
2023/04/16 15:08:01;;;;;;;11.20;7.63;;;11.60;99.90;;;;;;5052657;28;20044;-79
2023/04/16 15:11:05;;;;;;;12.35;9.25;;;11.70;99.90;;;;;;5052798;28;20044;-77
2023/04/16 15:14:09;;;;;;;12.68;9.07;;;11.80;99.90;;;;;;5052374;28;20048;-79
2023/04/16 15:17:13;;;;;;;10.63;8.43;;;11.80;99.90;;;;;;5053377;28;20115;-78
2023/04/16 15:20:17;;;;;;;11.90;10.07;;;11.80;99.90;;;;;;5053197;28;20047;-78
2023/04/16 15:23:22;;;;;;;13.18;9.13;;;11.90;99.90;;;;;;5053333;28;20318;-78
2023/04/16 15:26:26;;;;;;;11.40;8.18;;;12.00;99.90;;;;;;5052094;28;20067;-78
2023/04/16 15:29:30;;;;;;;9.93;7.97;;;12.00;99.90;;;;;;5051658;28;20048;-79
2023/04/16 15:32:34;;;;;;;11.70;8.00;;;12.00;99.90;;;;;;5051983;28;20055;-79
2023/04/16 15:35:40;;;;;;;9.70;7.45;;;12.30;99.90;;;;;;5051697;28;20051;-79
2023/04/16 15:38:44;;;;;;;13.50;8.35;;;14.20;99.90;;;;;;5053011;28;20039;-79
2023/04/16 15:41:49;;;;;;;11.30;8.10;;;12.00;99.90;;;;;;5052863;28;20064;-79
2023/04/16 15:44:53;;;;;;;11.23;8.70;;;11.90;99.90;;;;;;5052636;28;20036;-78
2023/04/16 15:47:58;;;;;;;11.45;9.75;;;12.00;99.90;;;;;;5052493;28;20044;-78
2023/04/16 15:51:01;;;;;;;13.48;8.68;;;12.10;99.90;;;;;;5052673;28;20044;-79
2023/04/16 15:54:06;;;;;;;11.00;8.90;;;12.20;99.90;;;;;;5053101;28;20051;-78
2023/04/16 15:57:10;;;;;;;13.90;9.70;;;12.10;99.90;;;;;;5052780;28;20504;-77
2023/04/16 16:00:17;;;;;;;13.57;9.88;;;12.10;99.90;;;;;;5051541;28;20488;-76
2023/04/16 16:03:22;;;;;;;12.65;10.20;;;;;;;;;;5052516;28;20373;-80
2023/04/16 16:06:26;;;;;;;17.23;11.43;;;12.00;99.90;;;;;;5052345;28;20043;-76
2023/04/16 16:09:30;;;;;;;14.30;10.70;;;12.00;99.90;;;;;;5052696;28;20402;-76
2023/04/16 16:12:33;;;;;;;14.43;12.10;;;12.20;99.90;;;;;;5052520;28;20048;-77
2023/04/16 16:15:41;;;;;;;15.98;12.27;;;12.20;99.90;;;;;;5052567;28;20067;-77
2023/04/16 16:18:46;;;;;;;13.95;11.85;;;12.10;99.90;;;;;;5051327;28;20052;-77
2023/04/16 16:21:50;;;;;;;18.08;12.88;;;12.20;99.90;;;;;;5051983;28;20068;-78